Tucumcari Municipal

About
Name: Tucumcari Municipal
Identifier:  TCC/KTCC
Owner:  City of Tucumcari
Public/Private:  Public
Local Time:  22. Aug 22:21 MDT
Description: Tucumcari Municipal Airport is about six miles east of Tucumcari, New Mexico.
Source: Wikipedia
Location
Runways
Identifier Length (m/ft) Surface
03/21 7,102/7,102 Asphalt
08/26 4,599/4,599 Asphalt
Flights per Day
0 flights
Distance: 605km (376mi)
Punctuality
0% (0 flights per day delayed)
Delay Average: 34 minutes
Current Weather
 23 C (Humidity: 53%)
  12kt (22km/h / 13mph) from 170°
  16km (10 mi.)
 
 METAR KTCC 230353Z AUTO 17012KT 10SM CLR 23/13 A2996 RMK AO2 LTG DSNT S RAE08 SLP082 P0000 T02330128

Current Flights

Departures
Number Departure To Airline
Arrivals
Number Arrival From Airline

Current Delays

Departures
N/A
Arrivals
N/A

Destinations

Top Destinations
Airport Flights
per week
Seats
per week
  San Diego (MYF) 1 - 0 0
  Sedona (SDX) 0 - 0 0
  Conroe (CXO) 0 - 0 0
  Amarillo (TDW) 0 - 0 0
  Rifle (RIL) 0 - 0 0

Airlines & Planes

Top Airlines
Airline Flights
per Day
Seats
per Day
  National Airlines 0 -
  Novair 0 -
Gama Aviation 0 -
Top Plane Types
Model Flights Seats
Cirrus SR22 0.3/day - 0
Beech B300 Super King Air 350 0.0/day - 0